Time;durP1;ratioP1;P1;durP2;ratioP2;P2;SDS_P1;SDS_P2;PMS_P1;PMS_P2;Temp;Humidity;BMP_temperature;BMP_pressure;BME280_temperature;BME280_humidity;BME280_pressure;Samples;Min_cycle;Max_cycle;Signal;HPM_P1;HPM_P2
2024/03/08 00:01:02;;;;;;;;;;;4.40;73.90;;;;;;5066318;28;20423;-60
2024/03/08 00:03:37;;;;;;;;;;;4.50;74.00;;;;;;5072181;28;19939;-62
2024/03/08 00:06:10;;;;;;;;;;;4.30;74.30;;;;;;5073315;28;20037;-60
2024/03/08 00:08:44;;;;;;;;;;;4.30;74.60;;;;;;5070737;28;19935;-61
2024/03/08 00:11:18;;;;;;;;;;;4.30;74.40;;;;;;5075563;28;19931;-62
2024/03/08 00:13:57;;;;;;;;;;;4.40;74.10;;;;;;5066663;28;19924;-60
2024/03/08 00:16:31;;;;;;;;;;;4.40;73.90;;;;;;5071706;28;20071;-62
2024/03/08 00:19:04;;;;;;;;;;;4.40;73.90;;;;;;5071428;28;20423;-60
2024/03/08 00:21:37;;;;;;;;;;;4.30;74.10;;;;;;5071556;28;19943;-61
2024/03/08 00:24:12;;;;;;;;;;;4.30;74.10;;;;;;5066169;28;19932;-62
2024/03/08 00:26:45;;;;;;;;;;;4.30;74.20;;;;;;5067279;28;19952;-62
2024/03/08 00:29:18;;;;;;;;;;;4.30;74.20;;;;;;5066995;28;19934;-61
2024/03/08 00:31:51;;;;;;;;;;;4.30;74.10;;;;;;5072299;28;20357;-60
2024/03/08 00:34:24;;;;;;;;;;;4.20;74.40;;;;;;5067205;28;20022;-59
2024/03/08 00:36:58;;;;;;;;;;;4.20;74.50;;;;;;5071575;28;19931;-65
2024/03/08 00:39:32;;;;;;;;;;;4.10;74.70;;;;;;5072549;28;19924;-59
2024/03/08 00:42:06;;;;;;;;;;;4.20;74.60;;;;;;5075856;28;20370;-58
2024/03/08 00:44:39;;;;;;;;;;;4.20;74.50;;;;;;5066915;28;20013;-58
2024/03/08 00:47:13;;;;;;;;;;;4.10;74.50;;;;;;5069279;28;20923;-58
2024/03/08 00:49:46;;;;;;;;;;;4.00;74.90;;;;;;5063140;28;19978;-59
2024/03/08 00:52:19;;;;;;;;;;;3.90;75.00;;;;;;5067876;28;20005;-58
2024/03/08 00:54:53;;;;;;;;;;;3.80;75.20;;;;;;5068965;28;20104;-59
2024/03/08 00:57:27;;;;;;;;;;;3.80;75.40;;;;;;5075249;28;19924;-58
2024/03/08 01:00:01;;;;;;;;;;;3.80;75.30;;;;;;5071786;28;20033;-61
2024/03/08 01:02:35;;;;;;;;;;;3.80;75.30;;;;;;5069239;28;19931;-59
2024/03/08 01:05:08;;;;;;;;;;;3.70;75.30;;;;;;5067562;28;19939;-59
2024/03/08 01:07:35;;;;;;;;;;;3.70;75.40;;;;;;5067408;28;19928;-60
2024/03/08 01:10:10;;;;;;;;;;;3.70;75.40;;;;;;5061743;28;19939;-60
2024/03/08 01:12:43;;;;;;;;;;;3.70;75.20;;;;;;5068856;28;19977;-58
2024/03/08 01:15:18;;;;;;;;;;;3.70;75.40;;;;;;5076359;28;19982;-60
2024/03/08 01:17:51;;;;;;;;;;;3.70;75.40;;;;;;5073192;28;20363;-59
2024/03/08 01:20:17;;;;;;;;;;;3.70;75.40;;;;;;5072369;28;20404;-59
2024/03/08 01:22:51;;;;;;;;;;;3.70;75.60;;;;;;5075306;28;19981;-58
2024/03/08 01:25:27;;;;;;;;;;;3.60;75.60;;;;;;5075051;28;20013;-59
2024/03/08 01:28:00;;;;;;;;;;;3.70;75.50;;;;;;5073297;28;19936;-58
2024/03/08 01:30:34;;;;;;;;;;;3.50;75.70;;;;;;5071510;28;20028;-59
2024/03/08 01:33:07;;;;;;;;;;;3.50;75.90;;;;;;5072000;28;20025;-58
2024/03/08 01:35:41;;;;;;;;;;;3.60;75.70;;;;;;5075557;28;19924;-58
2024/03/08 01:38:14;;;;;;;;;;;3.50;75.80;;;;;;5074800;28;19927;-59
2024/03/08 01:40:48;;;;;;;;;;;3.40;76.00;;;;;;5072906;28;19924;-59
2024/03/08 01:43:22;;;;;;;;;;;3.40;76.20;;;;;;5075281;28;19935;-59
2024/03/08 01:45:57;;;;;;;;;;;3.40;76.10;;;;;;5074058;28;20306;-59
2024/03/08 01:48:30;;;;;;;;;;;3.40;76.20;;;;;;5076696;28;19928;-64
2024/03/08 01:51:05;;;;;;;;;;;3.30;76.40;;;;;;5075060;28;19932;-63
2024/03/08 01:53:38;;;;;;;;;;;3.30;76.60;;;;;;5075315;28;19924;-65
2024/03/08 01:56:13;;;;;;;;;;;3.30;76.60;;;;;;5073379;28;20450;-65
2024/03/08 01:58:47;;;;;;;;;;;3.20;76.80;;;;;;5074510;28;19939;-63
2024/03/08 02:01:20;;;;;;;;;;;3.20;76.80;;;;;;5074153;28;20021;-63
2024/03/08 02:03:53;;;;;;;;;;;3.20;76.70;;;;;;5070717;28;19931;-66
2024/03/08 02:06:26;;;;;;;;;;;3.20;76.70;;;;;;5073733;28;19928;-64
2024/03/08 02:08:59;;;;;;;;;;;3.20;76.80;;;;;;5071262;28;19977;-64
2024/03/08 02:11:34;;;;;;;;;;;3.10;76.60;;;;;;5075252;28;20618;-63
2024/03/08 02:14:07;;;;;;;;;;;3.10;77.00;;;;;;5073896;28;19978;-63
2024/03/08 02:16:40;;;;;;;;;;;3.10;76.70;;;;;;5076420;28;19925;-63
2024/03/08 02:19:13;;;;;;;;;;;3.20;76.60;;;;;;5076757;28;20370;-62
2024/03/08 02:21:47;;;;;;;;;;;3.10;76.80;;;;;;5077345;28;19924;-63
2024/03/08 02:24:21;;;;;;;;;;;3.10;76.90;;;;;;5076536;28;19989;-64
2024/03/08 02:26:54;;;;;;;;;;;3.10;76.90;;;;;;5077308;28;20462;-65
2024/03/08 02:29:27;;;;;;;;;;;3.10;77.10;;;;;;5073760;28;20549;-66
2024/03/08 02:32:00;;;;;;;;;;;3.00;76.90;;;;;;5072192;28;20021;-64
2024/03/08 02:34:33;;;;;;;;;;;3.00;77.10;;;;;;5076392;28;19928;-64
2024/03/08 02:37:08;;;;;;;;;;;3.00;77.10;;;;;;5074206;28;19968;-65
2024/03/08 02:39:41;;;;;;;;;;;3.00;77.20;;;;;;5074010;28;19984;-65
2024/03/08 02:42:14;;;;;;;;;;;3.00;77.00;;;;;;5075739;28;19981;-63
2024/03/08 02:44:47;;;;;;;;;;;3.00;76.90;;;;;;5077008;28;19929;-64
2024/03/08 02:47:20;;;;;;;;;;;2.90;77.20;;;;;;5072131;28;19927;-64
2024/03/08 02:49:53;;;;;;;;;;;2.90;77.30;;;;;;5075148;28;19977;-66
2024/03/08 02:52:27;;;;;;;;;;;2.90;77.30;;;;;;5071870;28;19932;-63
2024/03/08 02:55:01;;;;;;;;;;;2.80;77.30;;;;;;5075564;28;20024;-64
2024/03/08 03:01:11;;;;;;;;;;;2.80;77.70;;;;;;5068092;28;20433;-61
2024/03/08 03:03:44;;;;;;;;;;;2.70;77.80;;;;;;5076280;28;19989;-62
2024/03/08 03:06:19;;;;;;;;;;;2.70;77.80;;;;;;5071664;28;19932;-59
2024/03/08 03:08:57;;;;;;;;;;;2.70;77.70;;;;;;5072956;28;19932;-62
2024/03/08 03:11:30;;;;;;;;;;;2.60;77.80;;;;;;5072302;28;19947;-60
2024/03/08 03:14:04;;;;;;;;;;;2.60;77.90;;;;;;5070127;28;19928;-60
2024/03/08 03:16:37;;;;;;;;;;;2.60;78.00;;;;;;5074058;28;19932;-59
2024/03/08 03:19:10;;;;;;;;;;;2.60;77.90;;;;;;5075954;28;19935;-58
2024/03/08 03:21:44;;;;;;;;;;;2.60;77.80;;;;;;5077060;28;19935;-60
2024/03/08 03:24:18;;;;;;;;;;;2.60;77.60;;;;;;5063240;28;20014;-60
2024/03/08 03:26:59;;;;;;;;;;;2.60;78.00;;;;;;5061583;28;19929;-61
2024/03/08 03:29:32;;;;;;;;;;;2.60;77.90;;;;;;5075829;28;19932;-61
2024/03/08 03:32:07;;;;;;;;;;;2.50;78.10;;;;;;5069973;28;20295;-61
2024/03/08 03:34:40;;;;;;;;;;;2.50;78.20;;;;;;5051843;28;20693;-61
2024/03/08 03:37:13;;;;;;;;;;;2.40;78.10;;;;;;5058906;28;19938;-61
2024/03/08 03:39:49;;;;;;;;;;;2.40;78.20;;;;;;5070975;28;19935;-61
2024/03/08 03:42:16;;;;;;;;;;;2.50;78.10;;;;;;5076786;28;20464;-61
2024/03/08 03:44:55;;;;;;;;;;;2.50;78.00;;;;;;5078212;28;20772;-62
2024/03/08 03:47:29;;;;;;;;;;;2.50;78.10;;;;;;5073486;28;19936;-60
2024/03/08 03:50:02;;;;;;;;;;;2.50;78.10;;;;;;5070322;28;19935;-61
2024/03/08 03:52:36;;;;;;;;;;;2.60;78.00;;;;;;5070476;28;20001;-61
2024/03/08 03:55:11;;;;;;;;;;;2.60;77.80;;;;;;5074154;28;19933;-60
2024/03/08 03:57:45;;;;;;;;;;;2.50;78.10;;;;;;5074651;28;20394;-60
2024/03/08 04:00:19;;;;;;;;;;;2.50;78.10;;;;;;5073433;28;20379;-59
2024/03/08 04:02:52;;;;;;;;;;;2.50;78.30;;;;;;5076430;28;20574;-60
2024/03/08 04:05:25;;;;;;;;;;;2.50;78.30;;;;;;5073960;28;20260;-60
2024/03/08 04:07:59;;;;;;;;;;;2.50;78.20;;;;;;5071694;28;19928;-59
2024/03/08 04:10:33;;;;;;;;;;;2.50;78.10;;;;;;5070083;28;19950;-58
2024/03/08 04:13:06;;;;;;;;;;;2.40;78.40;;;;;;5066809;28;19935;-59
2024/03/08 04:15:39;;;;;;;;;;;2.50;78.30;;;;;;5070612;28;19935;-58
2024/03/08 04:18:12;;;;;;;;;;;2.50;78.30;;;;;;5073158;28;19928;-58
2024/03/08 04:20:45;;;;;;;;;;;2.50;78.20;;;;;;5072525;28;19967;-58
2024/03/08 04:23:19;;;;;;;;;;;2.40;78.30;;;;;;5067758;28;20059;-59
2024/03/08 04:25:53;;;;;;;;;;;2.40;78.40;;;;;;5074069;28;20054;-58
2024/03/08 04:28:27;;;;;;;;;;;2.40;78.50;;;;;;5074868;28;20015;-58
2024/03/08 04:31:01;;;;;;;;;;;2.30;78.50;;;;;;5072677;28;20013;-59
2024/03/08 04:33:35;;;;;;;;;;;2.20;78.50;;;;;;5074222;28;19977;-57
2024/03/08 04:36:13;;;;;;;;;;;2.20;78.60;;;;;;5075894;28;20520;-57
2024/03/08 04:38:46;;;;;;;;;;;2.20;78.70;;;;;;5075134;28;19924;-57
2024/03/08 04:41:20;;;;;;;;;;;2.20;78.60;;;;;;5075587;28;19928;-60
2024/03/08 04:43:57;;;;;;;;;;;2.20;78.60;;;;;;5077820;28;20359;-58
2024/03/08 04:46:30;;;;;;;;;;;2.20;78.50;;;;;;5078298;28;20023;-58
2024/03/08 04:49:03;;;;;;;;;;;2.20;78.60;;;;;;5076963;28;20011;-58
2024/03/08 04:51:37;;;;;;;;;;;2.10;78.70;;;;;;5077246;28;19964;-59
2024/03/08 04:54:10;;;;;;;;;;;2.10;78.90;;;;;;5069989;28;19931;-59
2024/03/08 04:56:44;;;;;;;;;;;2.10;78.80;;;;;;5073040;28;19924;-59
2024/03/08 04:59:19;;;;;;;;;;;2.10;78.80;;;;;;5066245;28;19935;-57
2024/03/08 05:01:52;;;;;;;;;;;2.10;78.80;;;;;;5067310;28;19929;-57
2024/03/08 05:04:25;;;;;;;;;;;2.00;78.70;;;;;;5071991;28;20042;-57
2024/03/08 05:06:52;;;;;;;;;;;2.00;78.90;;;;;;5066550;28;20379;-59
2024/03/08 05:09:25;;;;;;;;;;;2.00;78.90;;;;;;5069393;28;20386;-59
2024/03/08 05:11:59;;;;;;;;;;;2.00;78.80;;;;;;5071102;28;20039;-58
2024/03/08 05:14:34;;;;;;;;;;;2.00;78.90;;;;;;5068870;28;19970;-59
2024/03/08 05:17:09;;;;;;;;;;;2.00;79.10;;;;;;5069195;28;19935;-65
2024/03/08 05:19:48;;;;;;;;;;;2.00;79.20;;;;;;5073524;28;19939;-64
2024/03/08 05:22:22;;;;;;;;;;;1.90;79.40;;;;;;5071913;28;20372;-65
2024/03/08 05:24:55;;;;;;;;;;;1.90;79.40;;;;;;5071305;28;19925;-65
2024/03/08 05:27:29;;;;;;;;;;;1.90;79.40;;;;;;5072329;28;19946;-64
2024/03/08 05:30:04;;;;;;;;;;;1.80;79.40;;;;;;5074401;28;19982;-63
2024/03/08 05:32:38;;;;;;;;;;;1.80;79.40;;;;;;5071584;28;19939;-64
2024/03/08 05:35:12;;;;;;;;;;;1.80;79.40;;;;;;5076353;28;19934;-64
2024/03/08 05:37:45;;;;;;;;;;;1.70;79.60;;;;;;5072054;28;20003;-63
2024/03/08 05:40:25;;;;;;;;;;;1.80;79.70;;;;;;5073359;28;19927;-65
2024/03/08 05:42:59;;;;;;;;;;;1.80;79.60;;;;;;5076206;28;19928;-65
2024/03/08 05:45:34;;;;;;;;;;;1.70;79.60;;;;;;5071642;28;20016;-66
2024/03/08 05:48:08;;;;;;;;;;;1.70;79.70;;;;;;5075809;28;20009;-64
2024/03/08 05:50:43;;;;;;;;;;;1.70;79.80;;;;;;5079863;28;19935;-64
2024/03/08 05:53:16;;;;;;;;;;;1.70;80.00;;;;;;5080734;28;19924;-64
2024/03/08 05:55:49;;;;;;;;;;;1.70;79.90;;;;;;5078973;28;19929;-64
2024/03/08 05:58:23;;;;;;;;;;;1.70;79.90;;;;;;5074481;28;19924;-66
2024/03/08 06:00:57;;;;;;;;;;;1.70;79.60;;;;;;5073858;28;19959;-65
2024/03/08 06:03:24;;;;;;;;;;;1.70;79.80;;;;;;5074968;28;19961;-64
2024/03/08 06:05:58;;;;;;;;;;;1.60;79.90;;;;;;5077087;28;19959;-63
2024/03/08 06:08:31;;;;;;;;;;;1.70;80.00;;;;;;5079704;28;19929;-65
2024/03/08 06:11:05;;;;;;;;;;;1.70;80.00;;;;;;5076620;28;19978;-64
2024/03/08 06:13:40;;;;;;;;;;;1.90;80.00;;;;;;5078008;28;19928;-64
2024/03/08 06:16:14;;;;;;;;;;;1.90;79.80;;;;;;5078108;28;19977;-64
2024/03/08 06:18:47;;;;;;;;;;;1.80;79.80;;;;;;5079475;28;19925;-64
2024/03/08 06:21:21;;;;;;;;;;;1.80;80.50;;;;;;5076971;28;19929;-65
2024/03/08 06:23:57;;;;;;;;;;;2.00;80.20;;;;;;5078625;28;19935;-64
2024/03/08 06:26:30;;;;;;;;;;;2.00;80.00;;;;;;5079210;28;19928;-63
2024/03/08 06:29:06;;;;;;;;;;;2.10;80.10;;;;;;5076057;28;19994;-63
2024/03/08 06:31:39;;;;;;;;;;;2.10;80.10;;;;;;5072265;28;19928;-62
2024/03/08 06:34:12;;;;;;;;;;;2.10;80.10;;;;;;5079465;28;19933;-63
2024/03/08 06:36:45;;;;;;;;;;;2.20;80.30;;;;;;5077664;28;19979;-63
2024/03/08 06:39:18;;;;;;;;;;;2.20;80.20;;;;;;5078200;28;19935;-62
2024/03/08 06:41:51;;;;;;;;;;;2.20;80.30;;;;;;5078071;28;19940;-62
2024/03/08 06:44:25;;;;;;;;;;;2.20;80.30;;;;;;5078374;28;19951;-63
2024/03/08 06:47:00;;;;;;;;;;;2.20;80.00;;;;;;5074175;28;20580;-63
2024/03/08 06:49:33;;;;;;;;;;;2.30;80.10;;;;;;5079507;28;19960;-64
2024/03/08 06:52:08;;;;;;;;;;;2.30;80.50;;;;;;5074677;28;19932;-63
2024/03/08 06:54:42;;;;;;;;;;;2.30;80.10;;;;;;5078445;28;19932;-62
2024/03/08 06:57:16;;;;;;;;;;;2.40;80.40;;;;;;5075575;28;19928;-63
2024/03/08 06:59:52;;;;;;;;;;;2.40;80.00;;;;;;5077894;28;19931;-63
2024/03/08 07:02:25;;;;;;;;;;;2.40;80.30;;;;;;5073637;28;20376;-62
2024/03/08 07:04:58;;;;;;;;;;;2.50;80.30;;;;;;5074631;28;20482;-63
2024/03/08 07:07:31;;;;;;;;;;;2.40;80.10;;;;;;5076710;28;20344;-63
2024/03/08 07:10:05;;;;;;;;;;;2.50;80.10;;;;;;5076541;28;20385;-63
2024/03/08 07:12:38;;;;;;;;;;;2.50;79.80;;;;;;5077247;28;19950;-62
2024/03/08 07:15:14;;;;;;;;;;;2.60;79.80;;;;;;5076554;28;20023;-62
2024/03/08 07:17:48;;;;;;;;;;;2.60;79.80;;;;;;5077718;28;19943;-63
2024/03/08 07:20:21;;;;;;;;;;;2.60;80.00;;;;;;5072780;28;19931;-63
2024/03/08 07:22:55;;;;;;;;;;;2.70;80.00;;;;;;5073436;28;19928;-64
2024/03/08 07:25:29;;;;;;;;;;;2.70;80.10;;;;;;5075985;28;19924;-63
2024/03/08 07:28:02;;;;;;;;;;;2.70;80.30;;;;;;5076551;28;19924;-63
2024/03/08 07:31:08;;;;;;;;;;;2.80;80.40;;;;;;5075307;28;19928;-63
2024/03/08 07:33:50;;;;;;;;;;;2.80;80.20;;;;;;5075183;28;19928;-63
2024/03/08 07:36:23;;;;;;;;;;;3.00;80.20;;;;;;5074525;28;19929;-62
2024/03/08 07:38:57;;;;;;;;;;;3.00;80.20;;;;;;5074059;28;19986;-71
2024/03/08 07:41:23;;;;;;;;;;;3.10;80.60;;;;;;5079007;28;19924;-71
2024/03/08 07:43:56;;;;;;;;;;;3.10;80.60;;;;;;5075647;28;20355;-72
2024/03/08 07:46:30;;;;;;;;;;;3.20;80.90;;;;;;5074652;28;19938;-72
2024/03/08 07:49:04;;;;;;;;;;;3.20;80.80;;;;;;5074435;28;19929;-72
2024/03/08 07:51:37;;;;;;;;;;;3.40;80.90;;;;;;5076511;28;19933;-73
2024/03/08 07:54:10;;;;;;;;;;;3.40;80.80;;;;;;5076575;28;20309;-72
2024/03/08 07:56:43;;;;;;;;;;;3.50;81.00;;;;;;5076354;28;20393;-73
2024/03/08 07:59:11;;;;;;;;;;;3.60;80.90;;;;;;5077194;28;19928;-72
2024/03/08 08:01:47;;;;;;;;;;;3.60;80.90;;;;;;5077392;28;19924;-73
2024/03/08 08:04:24;;;;;;;;;;;3.70;80.90;;;;;;5073076;28;19971;-72
2024/03/08 08:06:57;;;;;;;;;;;3.80;80.70;;;;;;5076011;28;19961;-71
2024/03/08 08:09:34;;;;;;;;;;;4.00;80.60;;;;;;5075760;28;19928;-72
2024/03/08 08:12:09;;;;;;;;;;;4.00;80.70;;;;;;5077627;28;19928;-71
2024/03/08 08:14:43;;;;;;;;;;;4.10;80.10;;;;;;5076825;28;20431;-73
2024/03/08 08:17:17;;;;;;;;;;;4.20;80.10;;;;;;5076327;28;20673;-72
2024/03/08 08:19:51;;;;;;;;;;;4.20;79.90;;;;;;5073611;28;19925;-73
2024/03/08 08:22:18;;;;;;;;;;;4.40;79.90;;;;;;5073590;28;19925;-71
2024/03/08 08:24:52;;;;;;;;;;;4.50;79.80;;;;;;5077892;28;20024;-72
2024/03/08 08:27:26;;;;;;;;;;;4.60;79.80;;;;;;5076903;28;19981;-72
2024/03/08 08:30:00;;;;;;;;;;;4.80;79.40;;;;;;5073640;28;19989;-72
2024/03/08 08:32:34;;;;;;;;;;;4.90;79.10;;;;;;5073848;28;19998;-73
2024/03/08 08:35:12;;;;;;;;;;;5.00;78.50;;;;;;5072090;28;19977;-73
2024/03/08 08:37:45;;;;;;;;;;;5.20;78.00;;;;;;5076647;28;20371;-72
2024/03/08 08:40:19;;;;;;;;;;;5.20;76.90;;;;;;5074547;28;20010;-72
2024/03/08 08:42:46;;;;;;;;;;;5.30;76.20;;;;;;5074278;28;19924;-73
2024/03/08 08:45:19;;;;;;;;;;;5.50;75.60;;;;;;5075833;28;19928;-73
2024/03/08 08:47:54;;;;;;;;;;;5.70;75.50;;;;;;5075741;28;19959;-60
2024/03/08 08:50:28;;;;;;;;;;;5.80;75.60;;;;;;5076867;28;19930;-60
2024/03/08 08:53:03;;;;;;;;;;;5.90;75.10;;;;;;5074713;28;19932;-59
2024/03/08 08:55:36;;;;;;;;;;;5.90;74.10;;;;;;5074037;28;19931;-60
2024/03/08 08:58:09;;;;;;;;;;;6.00;73.20;;;;;;5073391;28;19931;-60
2024/03/08 09:00:44;;;;;;;;;;;6.10;73.00;;;;;;5076372;28;20040;-60
2024/03/08 09:03:18;;;;;;;;;;;6.30;72.70;;;;;;5074124;28;19924;-59
2024/03/08 09:05:52;;;;;;;;;;;6.40;72.20;;;;;;5074638;28;19932;-59
2024/03/08 09:08:19;;;;;;;;;;;6.50;71.90;;;;;;5072003;28;19932;-61
2024/03/08 09:10:52;;;;;;;;;;;6.50;71.10;;;;;;5076067;28;20015;-59
2024/03/08 09:13:25;;;;;;;;;;;6.60;70.30;;;;;;5072008;28;19928;-60
2024/03/08 09:15:58;;;;;;;;;;;6.60;70.00;;;;;;5073859;28;20019;-61
2024/03/08 09:18:33;;;;;;;;;;;6.60;69.90;;;;;;5074524;28;19928;-59
2024/03/08 09:21:00;;;;;;;;;;;6.60;69.30;;;;;;5070153;28;19932;-59
2024/03/08 09:23:33;;;;;;;;;;;6.80;68.70;;;;;;5072429;28;19931;-59
2024/03/08 09:26:09;;;;;;;;;;;7.00;68.80;;;;;;5073961;28;20394;-61
2024/03/08 09:28:42;;;;;;;;;;;7.20;68.50;;;;;;5074554;28;19924;-59
2024/03/08 09:31:15;;;;;;;;;;;7.30;67.40;;;;;;5073200;28;19928;-60
2024/03/08 09:33:44;;;;;;;;;;;7.30;67.50;;;;;;5074481;28;20387;-61
2024/03/08 09:36:17;;;;;;;;;;;7.50;67.10;;;;;;5068579;28;19929;-59
2024/03/08 09:38:50;;;;;;;;;;;7.60;66.00;;;;;;5075462;28;20027;-60
2024/03/08 09:41:23;;;;;;;;;;;7.80;66.40;;;;;;5075262;28;19932;-60
2024/03/08 09:43:59;;;;;;;;;;;7.90;66.10;;;;;;5071406;28;20433;-62
2024/03/08 09:46:32;;;;;;;;;;;8.20;65.10;;;;;;5074775;28;19932;-59
2024/03/08 09:49:14;;;;;;;;;;;8.20;64.40;;;;;;5075485;28;19936;-61
2024/03/08 09:51:47;;;;;;;;;;;8.30;64.00;;;;;;5072138;28;19928;-61
2024/03/08 09:54:21;;;;;;;;;;;8.50;63.40;;;;;;5073312;28;19933;-60
2024/03/08 09:56:55;;;;;;;;;;;8.70;63.30;;;;;;5074701;28;19928;-71
2024/03/08 09:59:44;;;;;;;;;;;8.70;63.40;;;;;;5075767;28;20007;-72
2024/03/08 10:02:18;;;;;;;;;;;8.90;63.00;;;;;;5073943;28;20291;-72
2024/03/08 10:04:54;;;;;;;;;;;9.20;62.70;;;;;;5076008;28;20363;-73
2024/03/08 10:07:28;;;;;;;;;;;9.50;62.10;;;;;;5076003;28;20020;-72
2024/03/08 10:10:01;;;;;;;;;;;9.70;61.70;;;;;;5074955;28;19946;-71
2024/03/08 10:12:35;;;;;;;;;;;9.90;61.30;;;;;;5076911;28;19951;-72
2024/03/08 10:15:09;;;;;;;;;;;10.10;61.10;;;;;;5076612;28;19982;-71
2024/03/08 10:17:36;;;;;;;;;;;10.30;60.40;;;;;;5076525;28;20425;-73
2024/03/08 10:20:15;;;;;;;;;;;10.30;60.60;;;;;;5076672;28;19956;-74
2024/03/08 10:22:48;;;;;;;;;;;10.40;60.30;;;;;;5076043;28;19977;-72
2024/03/08 10:25:15;;;;;;;;;;;10.40;59.80;;;;;;5075683;28;20288;-72
2024/03/08 10:27:48;;;;;;;;;;;10.60;59.40;;;;;;5074935;28;19963;-73
2024/03/08 10:30:21;;;;;;;;;;;10.80;59.00;;;;;;5074791;28;19924;-72
2024/03/08 10:32:54;;;;;;;;;;;10.80;59.00;;;;;;5076268;28;19967;-73
2024/03/08 10:35:28;;;;;;;;;;;10.90;58.40;;;;;;5078862;28;19931;-72
2024/03/08 10:38:06;;;;;;;;;;;10.90;58.00;;;;;;5078270;28;19979;-72
2024/03/08 10:40:41;;;;;;;;;;;11.00;57.50;;;;;;5078699;28;19935;-76
2024/03/08 10:43:18;;;;;;;;;;;11.10;57.60;;;;;;5077290;28;19928;-72
2024/03/08 10:45:56;;;;;;;;;;;11.20;57.80;;;;;;5076434;28;19939;-71
2024/03/08 10:48:31;;;;;;;;;;;11.10;56.60;;;;;;5077147;28;19951;-73
2024/03/08 10:51:07;;;;;;;;;;;11.10;56.10;;;;;;5079886;28;20291;-72
2024/03/08 10:53:43;;;;;;;;;;;11.10;55.80;;;;;;5079371;28;20163;-72
2024/03/08 10:56:16;;;;;;;;;;;11.10;54.80;;;;;;5075613;28;20268;-72
2024/03/08 10:58:50;;;;;;;;;;;11.10;54.70;;;;;;5077203;28;20699;-73
2024/03/08 11:01:24;;;;;;;;;;;11.10;55.50;;;;;;5076620;28;19928;-72
2024/03/08 11:03:58;;;;;;;;;;;11.30;55.90;;;;;;5076317;28;19929;-72
2024/03/08 11:06:45;;;;;;;;;;;11.40;55.40;;;;;;5079707;28;19928;-72
2024/03/08 11:09:30;;;;;;;;;;;11.60;55.20;;;;;;5075971;28;19936;-73
2024/03/08 11:12:25;;;;;;;;;;;11.60;54.40;;;;;;5076211;28;20375;-72
2024/03/08 11:15:00;;;;;;;;;;;11.60;54.00;;;;;;5077366;28;19951;-74
2024/03/08 11:17:41;;;;;;;;;;;11.70;54.40;;;;;;5078127;28;19932;-73
2024/03/08 11:20:16;;;;;;;;;;;11.70;55.00;;;;;;5070252;28;19935;-72
2024/03/08 11:22:51;;;;;;;;;;;11.80;54.70;;;;;;5075034;28;19940;-73
2024/03/08 11:25:32;;;;;;;;;;;11.90;54.20;;;;;;5077349;28;19924;-73
2024/03/08 11:28:18;;;;;;;;;;;11.90;54.30;;;;;;5075914;28;19930;-73
2024/03/08 11:31:07;;;;;;;;;;;12.00;54.90;;;;;;5075106;28;19928;-71
2024/03/08 11:33:43;;;;;;;;;;;12.00;54.50;;;;;;5073926;28;19959;-71
2024/03/08 11:36:22;;;;;;;;;;;12.10;54.50;;;;;;5074012;28;19939;-72
2024/03/08 11:38:59;;;;;;;;;;;12.00;53.50;;;;;;5076069;28;20401;-73
2024/03/08 11:41:32;;;;;;;;;;;12.00;53.50;;;;;;5075768;28;19970;-73
2024/03/08 11:44:06;;;;;;;;;;;12.10;53.90;;;;;;5074069;28;20059;-73
2024/03/08 11:46:43;;;;;;;;;;;12.00;54.00;;;;;;5074379;28;19928;-72
2024/03/08 11:49:16;;;;;;;;;;;12.00;53.50;;;;;;5073462;28;20024;-72
2024/03/08 11:51:52;;;;;;;;;;;11.90;53.40;;;;;;5075808;28;19932;-72
2024/03/08 11:54:27;;;;;;;;;;;12.00;54.80;;;;;;5069247;28;19986;-72
2024/03/08 11:57:00;;;;;;;;;;;11.90;53.80;;;;;;5075059;28;19964;-73
2024/03/08 11:59:33;;;;;;;;;;;11.90;54.00;;;;;;5076845;28;19939;-72
2024/03/08 12:02:14;;;;;;;;;;;11.90;54.00;;;;;;5073153;28;20069;-71
2024/03/08 12:04:48;;;;;;;;;;;11.90;54.60;;;;;;5075510;28;20012;-73
2024/03/08 12:07:36;;;;;;;;;;;11.90;55.00;;;;;;5073746;28;25530;-72
2024/03/08 12:10:24;;;;;;;;;;;11.80;53.50;;;;;;5078067;28;20414;-73
2024/03/08 12:12:59;;;;;;;;;;;11.70;54.80;;;;;;5074896;28;19932;-73
2024/03/08 12:15:39;;;;;;;;;;;11.70;53.70;;;;;;5077492;28;19947;-74
2024/03/08 12:18:12;;;;;;;;;;;11.60;54.70;;;;;;5072549;28;20007;-60
2024/03/08 12:20:49;;;;;;;;;;;11.50;54.10;;;;;;5075665;28;19934;-61
2024/03/08 12:23:22;;;;;;;;;;;11.50;54.40;;;;;;5069092;28;19936;-61
2024/03/08 12:25:57;;;;;;;;;;;11.50;55.10;;;;;;5076185;28;20015;-61
2024/03/08 12:28:30;;;;;;;;;;;11.40;54.60;;;;;;5074829;28;19935;-61
2024/03/08 12:31:05;;;;;;;;;;;11.40;54.80;;;;;;5074767;28;19939;-61
2024/03/08 12:33:38;;;;;;;;;;;11.40;54.40;;;;;;5077045;28;19924;-59
2024/03/08 12:36:14;;;;;;;;;;;11.40;55.10;;;;;;5073959;28;19952;-60
2024/03/08 12:38:48;;;;;;;;;;;11.40;55.20;;;;;;5076304;28;19932;-62
2024/03/08 12:41:23;;;;;;;;;;;11.40;56.00;;;;;;5074691;28;20516;-61
2024/03/08 12:43:56;;;;;;;;;;;11.40;55.40;;;;;;5078315;28;20004;-62
2024/03/08 12:46:29;;;;;;;;;;;11.30;55.60;;;;;;5077369;28;19924;-60
2024/03/08 12:49:04;;;;;;;;;;;11.40;56.10;;;;;;5072129;28;19924;-61
2024/03/08 12:51:38;;;;;;;;;;;11.30;56.20;;;;;;5075240;28;19977;-61
2024/03/08 12:54:11;;;;;;;;;;;11.20;56.20;;;;;;5075567;28;19981;-59
2024/03/08 12:56:46;;;;;;;;;;;11.20;56.30;;;;;;5074448;28;19928;-59
2024/03/08 12:59:13;;;;;;;;;;;11.20;56.20;;;;;;5069636;28;19928;-60
2024/03/08 13:01:47;;;;;;;;;;;11.20;55.50;;;;;;5076310;28;19974;-60
2024/03/08 13:04:21;;;;;;;;;;;11.20;56.70;;;;;;5071275;28;19932;-61
2024/03/08 13:06:55;;;;;;;;;;;11.20;56.10;;;;;;5075627;28;19932;-60
2024/03/08 13:09:28;;;;;;;;;;;11.10;56.30;;;;;;5076406;28;19928;-61
2024/03/08 13:12:04;;;;;;;;;;;11.10;57.60;;;;;;5067878;28;20013;-61
2024/03/08 13:14:38;;;;;;;;;;;11.10;57.10;;;;;;5071292;28;19985;-61
2024/03/08 13:17:12;;;;;;;;;;;11.10;57.20;;;;;;5073377;28;19925;-61
2024/03/08 13:19:45;;;;;;;;;;;11.00;57.30;;;;;;5076265;28;20428;-60
2024/03/08 13:22:19;;;;;;;;;;;11.00;57.00;;;;;;5075874;28;19928;-61
2024/03/08 13:24:53;;;;;;;;;;;11.00;57.70;;;;;;5074819;28;19935;-61
2024/03/08 13:27:28;;;;;;;;;;;10.90;57.30;;;;;;5072185;28;20370;-65
2024/03/08 13:30:02;;;;;;;;;;;10.90;57.00;;;;;;5074623;28;19928;-65
2024/03/08 13:32:35;;;;;;;;;;;10.90;57.50;;;;;;5070357;28;19970;-66
2024/03/08 13:35:15;;;;;;;;;;;10.90;57.90;;;;;;5075764;28;19925;-66
2024/03/08 13:37:48;;;;;;;;;;;10.90;57.60;;;;;;5075382;28;20462;-66
2024/03/08 13:40:21;;;;;;;;;;;10.80;58.30;;;;;;5074335;28;19978;-66
2024/03/08 13:42:56;;;;;;;;;;;10.90;57.60;;;;;;5071210;28;19934;-67
2024/03/08 13:45:29;;;;;;;;;;;10.80;57.90;;;;;;5072806;28;19936;-66
2024/03/08 13:48:04;;;;;;;;;;;10.80;56.80;;;;;;5075903;28;20283;-65
2024/03/08 13:50:37;;;;;;;;;;;10.80;57.50;;;;;;5075912;28;19999;-68
2024/03/08 13:53:11;;;;;;;;;;;10.70;58.30;;;;;;5075824;28;20060;-66
2024/03/08 13:55:44;;;;;;;;;;;10.70;57.10;;;;;;5075213;28;19971;-66
2024/03/08 13:58:20;;;;;;;;;;;10.70;58.30;;;;;;5072811;28;19997;-66
2024/03/08 14:00:53;;;;;;;;;;;10.60;58.10;;;;;;5072738;28;19932;-64
2024/03/08 14:03:26;;;;;;;;;;;10.60;56.70;;;;;;5069743;28;19931;-69
2024/03/08 14:06:00;;;;;;;;;;;10.70;57.70;;;;;;5073310;28;19939;-68
2024/03/08 14:08:33;;;;;;;;;;;10.60;59.20;;;;;;5077201;28;19925;-68
2024/03/08 14:11:11;;;;;;;;;;;10.60;58.90;;;;;;5077379;28;19932;-67
2024/03/08 14:13:46;;;;;;;;;;;10.50;59.10;;;;;;5079169;28;20315;-67
2024/03/08 14:16:19;;;;;;;;;;;10.50;58.80;;;;;;5079733;28;19928;-67
2024/03/08 14:18:52;;;;;;;;;;;10.50;59.20;;;;;;5077954;28;19977;-68
2024/03/08 14:21:25;;;;;;;;;;;10.50;58.70;;;;;;5074446;28;19928;-69
2024/03/08 14:23:58;;;;;;;;;;;10.50;58.40;;;;;;5078550;28;19934;-66
2024/03/08 14:26:31;;;;;;;;;;;10.50;58.00;;;;;;5073884;28;19932;-67
2024/03/08 14:29:06;;;;;;;;;;;10.40;57.10;;;;;;5079232;28;20492;-67
2024/03/08 14:31:41;;;;;;;;;;;10.50;58.40;;;;;;5076839;28;19928;-66
2024/03/08 14:34:14;;;;;;;;;;;10.40;58.30;;;;;;5074107;28;19931;-66
2024/03/08 14:36:48;;;;;;;;;;;10.40;58.10;;;;;;5079576;28;19928;-67
2024/03/08 14:39:26;;;;;;;;;;;10.40;57.90;;;;;;5073233;28;19930;-66
2024/03/08 14:41:59;;;;;;;;;;;10.40;58.60;;;;;;5075466;28;19964;-66
2024/03/08 14:44:34;;;;;;;;;;;10.40;58.00;;;;;;5075459;28;19936;-67
2024/03/08 14:47:08;;;;;;;;;;;10.40;57.90;;;;;;5077076;28;19937;-67
2024/03/08 14:49:41;;;;;;;;;;;10.40;59.10;;;;;;5075946;28;20703;-66
2024/03/08 14:52:27;;;;;;;;;;;10.40;58.50;;;;;;5076186;28;19929;-66
2024/03/08 14:55:03;;;;;;;;;;;10.40;57.70;;;;;;5073038;28;19930;-67
2024/03/08 14:57:36;;;;;;;;;;;10.40;59.30;;;;;;5077951;28;20387;-67
2024/03/08 15:00:16;;;;;;;;;;;10.40;58.50;;;;;;5071815;28;20380;-67
2024/03/08 15:02:53;;;;;;;;;;;10.30;59.00;;;;;;5071163;28;19932;-66
2024/03/08 15:05:27;;;;;;;;;;;10.30;58.70;;;;;;5070295;28;19934;-66
2024/03/08 15:08:02;;;;;;;;;;;10.30;59.70;;;;;;5066970;28;19932;-67
2024/03/08 15:10:43;;;;;;;;;;;10.30;58.80;;;;;;5072652;28;19935;-67